Time;durP1;ratioP1;P1;durP2;ratioP2;P2;SDS_P1;SDS_P2;PMS_P1;PMS_P2;Temp;Humidity;BMP_temperature;BMP_pressure;BME280_temperature;BME280_humidity;BME280_pressure;Samples;Min_cycle;Max_cycle;Signal;HPM_P1;HPM_P2
2024/02/17 00:01:02;;;;;;;9.30;7.40;;;;;;;8.27;90.04;99660.83;438804;1256;139644;-53
2024/02/17 00:11:30;;;;;;;9.90;7.50;;;;;;;8.26;90.13;99659.49;437784;1253;139059;-54
2024/02/17 00:21:57;;;;;;;8.20;7.40;;;;;;;8.26;90.13;99661.73;438308;1253;139754;-53
2024/02/17 00:32:23;;;;;;;11.30;9.70;;;;;;;8.22;90.01;99657.07;438738;1253;139240;-55
2024/02/17 00:42:50;;;;;;;11.60;8.10;;;;;;;8.10;90.05;99652.69;440283;1253;139898;-52
2024/02/17 00:53:16;;;;;;;11.40;9.10;;;;;;;8.03;90.55;99662.96;440144;1253;139707;-54
2024/02/17 01:03:43;;;;;;;10.50;8.10;;;;;;;8.03;91.38;99663.51;437774;1256;139583;-54
2024/02/17 01:14:09;;;;;;;11.40;8.30;;;;;;;8.02;91.80;99663.89;438460;1256;139252;-58
2024/02/17 01:24:36;;;;;;;11.60;9.70;;;;;;;8.03;91.95;99664.89;440710;1253;139281;-58
2024/02/17 01:35:03;;;;;;;11.00;9.20;;;;;;;8.03;92.07;99668.54;438763;1256;140178;-73
2024/02/17 01:45:29;;;;;;;10.70;9.10;;;;;;;8.02;92.18;99667.39;436322;1253;140832;-73
2024/02/17 01:56:00;;;;;;;11.90;9.80;;;;;;;7.99;92.31;99671.36;436363;1253;140038;-58
2024/02/17 02:06:29;;;;;;;11.30;9.10;;;;;;;7.98;92.61;99667.02;437201;1256;139932;-57
2024/02/17 02:16:56;;;;;;;10.90;8.10;;;;;;;8.01;93.11;99669.88;436897;1256;139958;-55
2024/02/17 02:27:24;;;;;;;10.00;8.00;;;;;;;7.94;93.78;99664.44;438316;1256;139478;-55
2024/02/17 02:37:51;;;;;;;11.70;8.80;;;;;;;7.86;94.33;99657.92;436968;1254;140090;-54
2024/02/17 02:48:18;;;;;;;9.10;7.80;;;;;;;7.77;95.25;99653.33;437002;1251;139289;-54
2024/02/17 02:58:47;;;;;;;11.40;9.00;;;;;;;7.71;96.06;99656.91;440245;1253;139898;-55
2024/02/17 03:09:13;;;;;;;9.90;8.40;;;;;;;7.70;96.31;99662.00;436911;1256;139479;-58
2024/02/17 03:19:39;;;;;;;13.30;9.10;;;;;;;7.71;97.25;99662.52;436295;1251;139947;-56
2024/02/17 03:30:10;;;;;;;12.00;9.50;;;;;;;7.76;97.58;99666.41;436927;1256;140459;-54
2024/02/17 03:40:36;;;;;;;18.90;11.00;;;;;;;7.83;97.73;99673.21;439364;1253;139376;-55
2024/02/17 03:51:06;;;;;;;12.30;9.60;;;;;;;7.85;98.22;99692.10;437476;1256;139768;-54
2024/02/17 04:01:36;;;;;;;;;;;;;;;7.83;98.92;99703.36;438403;1256;139531;-53
2024/02/17 04:12:02;;;;;;;11.30;10.00;;;;;;;7.77;99.50;99710.83;437619;1256;125886;-70
2024/02/17 04:22:29;;;;;;;15.10;9.80;;;;;;;7.62;100.00;99720.96;438444;1256;140857;-58
2024/02/17 04:32:55;;;;;;;13.70;11.50;;;;;;;7.50;100.00;99725.92;437069;1256;139989;-71
2024/02/17 04:43:24;;;;;;;12.70;10.40;;;;;;;7.38;100.00;99733.98;436426;1256;140093;-54
2024/02/17 04:53:51;;;;;;;12.50;10.70;;;;;;;7.32;100.00;99738.09;436605;1256;141054;-54
2024/02/17 05:04:17;;;;;;;14.00;11.10;;;;;;;7.28;100.00;99742.12;437043;1263;141198;-57
2024/02/17 05:14:44;;;;;;;12.90;11.50;;;;;;;7.23;100.00;99748.08;437392;1257;139989;-57
2024/02/17 05:25:10;;;;;;;13.40;10.60;;;;;;;7.23;100.00;99755.91;440350;1257;140421;-53
2024/02/17 05:35:37;;;;;;;12.80;10.50;;;;;;;7.23;100.00;99757.85;436287;1254;139911;-55
2024/02/17 05:46:04;;;;;;;13.80;11.30;;;;;;;7.26;100.00;99767.30;437134;1257;140760;-57
2024/02/17 05:56:31;;;;;;;14.00;10.50;;;;;;;7.28;100.00;99773.42;435930;1258;139459;-70
2024/02/17 06:06:57;;;;;;;12.40;10.40;;;;;;;7.34;100.00;99786.08;436829;1263;140477;-70
2024/02/17 06:17:26;;;;;;;13.20;11.20;;;;;;;7.38;100.00;99789.50;435887;1256;141958;-67
2024/02/17 06:27:53;;;;;;;13.20;11.00;;;;;;;7.43;100.00;99797.47;441532;1261;140331;-68
2024/02/17 06:38:20;;;;;;;18.50;16.70;;;;;;;7.48;100.00;99805.77;435961;1254;5334552;-58
2024/02/17 06:48:50;;;;;;;14.40;12.90;;;;;;;7.56;100.00;99819.67;436654;1254;140787;-58
2024/02/17 06:59:18;;;;;;;16.90;14.00;;;;;;;7.63;100.00;99825.44;436765;1256;140818;-59
2024/02/17 07:09:48;;;;;;;16.50;14.80;;;;;;;7.73;100.00;99832.86;438472;1258;140513;-58
2024/02/17 07:20:15;;;;;;;16.50;14.00;;;;;;;7.81;100.00;99845.13;437839;1256;140485;-70
2024/02/17 07:30:44;;;;;;;19.40;15.90;;;;;;;7.90;100.00;99863.88;436282;1256;140647;-71
2024/02/17 07:41:11;;;;;;;14.90;12.90;;;;;;;7.94;100.00;99873.28;437034;1257;140069;-55
2024/02/17 07:51:40;;;;;;;29.60;23.50;;;;;;;7.98;100.00;99878.50;437104;1257;140568;-59
2024/02/17 08:02:07;;;;;;;20.90;17.70;;;;;;;8.04;100.00;99892.89;439967;1256;139936;-71
2024/02/17 08:12:33;;;;;;;15.60;13.80;;;;;;;8.07;100.00;99902.50;436480;1256;140194;-55
2024/02/17 08:23:02;;;;;;;15.10;13.50;;;;;;;8.16;100.00;99914.27;437813;1258;139753;-55
2024/02/17 08:33:28;;;;;;;11.60;9.90;;;;;;;8.27;100.00;99917.22;439106;1257;140117;-53
2024/02/17 08:43:55;;;;;;;12.00;10.40;;;;;;;8.38;100.00;99923.64;438694;1257;140095;-49
2024/02/17 08:54:25;;;;;;;11.20;10.00;;;;;;;8.46;100.00;99934.61;436412;1256;140006;-58
2024/02/17 09:04:52;;;;;;;11.60;8.80;;;;;;;8.57;100.00;99944.90;436505;1254;139942;-59
2024/02/17 09:15:18;;;;;;;10.10;9.10;;;;;;;8.74;100.00;99952.95;437555;1257;141264;-53
2024/02/17 09:25:45;;;;;;;12.70;11.50;;;;;;;8.80;100.00;99956.00;439395;1256;139843;-50
2024/02/17 09:36:11;;;;;;;11.00;9.90;;;;;;;8.85;100.00;99963.59;436065;1255;140399;-53
2024/02/17 09:46:38;;;;;;;14.10;12.40;;;;;;;9.03;100.00;99985.20;437045;1254;140043;-63
2024/02/17 09:57:06;;;;;;;14.30;12.40;;;;;;;9.27;100.00;100001.64;435963;1253;140770;-58
2024/02/17 10:07:32;;;;;;;13.70;12.30;;;;;;;9.43;100.00;100007.59;436210;1251;140482;-60
2024/02/17 10:17:59;;;;;;;12.50;11.30;;;;;;;9.53;100.00;100017.02;437714;1256;139993;-54
2024/02/17 10:28:27;;;;;;;14.80;13.40;;;;;;;9.64;100.00;100018.56;436676;1253;140228;-56
2024/02/17 10:38:54;;;;;;;10.30;9.30;;;;;;;9.91;100.00;100021.84;436976;1257;140790;-54
2024/02/17 10:49:35;;;;;;;10.50;9.50;;;;;;;10.19;100.00;100031.72;437087;1256;139901;-55
2024/02/17 11:00:03;;;;;;;9.10;8.20;;;;;;;10.46;100.00;100044.23;437562;1256;140910;-55
2024/02/17 11:10:33;;;;;;;11.00;9.60;;;;;;;10.96;100.00;100038.30;435708;1254;140227;-55
2024/02/17 11:21:00;;;;;;;9.10;8.30;;;;;;;11.15;100.00;100041.36;436444;1256;140539;-74
2024/02/17 11:31:31;;;;;;;10.10;9.00;;;;;;;10.86;100.00;100051.64;440179;1253;140251;-56
2024/02/17 11:42:00;;;;;;;7.80;7.00;;;;;;;10.96;100.00;100067.31;438829;1253;142030;-55
2024/02/17 11:52:31;;;;;;;6.70;6.10;;;;;;;11.02;100.00;100080.49;438133;1251;140612;-56
2024/02/17 12:02:59;;;;;;;5.50;5.00;;;;;;;11.14;100.00;100082.95;437996;1250;140598;-59
2024/02/17 12:13:26;;;;;;;5.80;5.30;;;;;;;11.06;100.00;100096.73;442823;1257;141136;-59
2024/02/17 12:23:54;;;;;;;6.10;5.60;;;;;;;11.05;100.00;100102.02;438486;1251;142197;-69
2024/02/17 12:34:33;;;;;;;6.20;4.90;;;;;;;11.02;100.00;100104.69;440197;1252;140541;-69
2024/02/17 12:45:04;;;;;;;5.20;4.70;;;;;;;10.75;100.00;100108.27;436503;1256;140580;-58
2024/02/17 12:55:32;;;;;;;5.10;4.60;;;;;;;10.50;100.00;100114.55;437039;1254;140752;-58
2024/02/17 13:05:59;;;;;;;6.30;5.20;;;;;;;10.67;100.00;100112.60;438001;1254;140390;-58
2024/02/17 13:16:28;;;;;;;4.40;4.00;;;;;;;10.69;100.00;100121.23;439313;1256;141059;-68
2024/02/17 13:26:57;;;;;;;4.60;3.90;;;;;;;10.44;100.00;100132.04;438525;1253;142281;-56
2024/02/17 13:37:24;;;;;;;3.50;3.20;;;;;;;10.15;100.00;100140.95;437538;1256;140428;-56
2024/02/17 13:47:51;;;;;;;4.70;4.20;;;;;;;9.98;100.00;100148.61;436413;1253;140702;-56
2024/02/17 13:58:20;;;;;;;4.90;3.20;;;;;;;9.92;100.00;100160.30;438437;1253;139998;-69
2024/02/17 14:08:48;;;;;;;2.70;2.40;;;;;;;9.96;100.00;100160.64;435825;1256;140602;-66
2024/02/17 14:19:17;;;;;;;3.80;2.80;;;;;;;9.99;100.00;100177.95;436623;1252;139697;-58
2024/02/17 14:29:48;;;;;;;4.90;4.50;;;;;;;9.98;100.00;100191.98;437965;1256;140626;-58
2024/02/17 14:40:15;;;;;;;4.80;3.30;;;;;;;9.92;100.00;100206.13;436532;1253;139888;-68
2024/02/17 14:50:43;;;;;;;4.90;3.50;;;;;;;9.73;100.00;100220.55;438124;1256;140044;-68
2024/02/17 15:01:10;;;;;;;6.60;4.30;;;;;;;9.47;100.00;100246.98;441086;1256;140605;-60
2024/02/17 15:11:35;;;;;;;;;;;;;;;9.19;100.00;100275.40;437674;1251;139965;-57
2024/02/17 15:22:01;;;;;;;2.30;2.10;;;;;;;8.92;100.00;100294.80;438373;1256;126791;-56
2024/02/17 15:32:28;;;;;;;2.80;2.50;;;;;;;8.48;100.00;100324.16;437253;1251;140408;-67
2024/02/17 15:42:56;;;;;;;4.00;2.90;;;;;;;8.03;100.00;100341.33;442688;1256;140097;-68
2024/02/17 15:53:25;;;;;;;3.90;3.10;;;;;;;7.68;100.00;100354.28;437864;1253;140153;-58
2024/02/17 16:03:52;;;;;;;3.60;2.80;;;;;;;7.39;100.00;100373.34;436083;1253;139852;-59
2024/02/17 16:14:18;;;;;;;3.90;2.90;;;;;;;6.94;100.00;100390.98;436920;1256;140172;-55
2024/02/17 16:24:44;;;;;;;3.60;3.30;;;;;;;6.83;100.00;100409.15;440228;1256;140014;-56
2024/02/17 16:35:11;;;;;;;5.60;3.80;;;;;;;6.82;100.00;100437.20;438667;1256;140635;-67
2024/02/17 16:45:37;;;;;;;;;;;;;;;6.81;100.00;100466.98;439000;1253;140263;-66
2024/02/17 16:56:04;;;;;;;3.80;2.30;;;;;;;6.69;100.00;100489.14;437053;1256;126561;-59
2024/02/17 17:06:31;;;;;;;2.80;2.10;;;;;;;6.53;100.00;100513.14;436880;1253;140640;-69
2024/02/17 17:16:57;;;;;;;3.60;3.30;;;;;;;6.39;100.00;100534.45;437320;1256;139509;-69
2024/02/17 17:27:26;;;;;;;4.30;2.40;;;;;;;6.28;100.00;100562.63;436837;1253;139584;-58
2024/02/17 17:37:52;;;;;;;3.00;1.50;;;;;;;6.17;100.00;100582.80;436420;1256;140314;-59
2024/02/17 17:48:18;;;;;;;6.10;5.10;;;;;;;6.01;100.00;100596.60;437662;1256;139553;-60
2024/02/17 17:58:46;;;;;;;1.40;1.30;;;;;;;5.91;100.00;100612.00;441125;1256;139804;-58
2024/02/17 18:09:13;;;;;;;3.40;1.30;;;;;;;5.83;100.00;100623.85;437137;1250;140064;-68
2024/02/17 18:19:39;;;;;;;3.40;1.20;;;;;;;5.76;100.00;100645.24;438177;1256;139277;-67
2024/02/17 18:30:08;;;;;;;1.90;1.70;;;;;;;5.70;100.00;100654.77;436764;1253;139664;-69
2024/02/17 18:40:35;;;;;;;2.90;1.40;;;;;;;5.65;100.00;100666.90;435724;1256;415555;-55
2024/02/17 18:51:02;;;;;;;2.60;1.40;;;;;;;5.63;100.00;100668.88;440364;1255;139630;-56
2024/02/17 19:01:29;;;;;;;4.60;2.40;;;;;;;5.60;100.00;100677.80;437042;1252;140312;-56
2024/02/17 19:11:56;;;;;;;1.10;1.00;;;;;;;5.58;100.00;100689.84;436235;1253;140253;-58
2024/02/17 19:22:22;;;;;;;4.00;1.80;;;;;;;5.54;100.00;100703.67;438204;1256;140092;-56
2024/02/17 19:32:49;;;;;;;5.30;2.30;;;;;;;5.48;100.00;100725.86;437598;1252;139881;-55
2024/02/17 19:43:15;;;;;;;4.10;1.80;;;;;;;5.41;100.00;100738.20;438443;1253;140045;-69
2024/02/17 19:53:42;;;;;;;3.50;1.80;;;;;;;5.36;100.00;100745.27;437699;1253;139719;-69
2024/02/17 20:04:09;;;;;;;4.30;2.40;;;;;;;5.30;100.00;100760.85;439341;1252;140301;-68
2024/02/17 20:14:36;;;;;;;1.70;1.10;;;;;;;5.26;100.00;100775.19;438957;1253;139750;-69
2024/02/17 20:25:06;;;;;;;2.60;1.80;;;;;;;5.22;100.00;100783.43;436975;1256;140019;-58
2024/02/17 20:35:34;;;;;;;1.90;1.70;;;;;;;5.17;100.00;100799.86;437352;1256;140481;-69
2024/02/17 20:46:01;;;;;;;3.50;1.60;;;;;;;5.09;100.00;100814.09;439181;1256;139678;-56
2024/02/17 20:56:27;;;;;;;2.10;1.80;;;;;;;4.99;100.00;100834.96;436663;1256;140588;-58
2024/02/17 21:06:54;;;;;;;2.30;2.10;;;;;;;4.84;100.00;100846.02;436353;1256;140285;-57
2024/02/17 21:17:21;;;;;;;1.60;1.50;;;;;;;4.71;100.00;100859.61;436227;1256;139845;-58
2024/02/17 21:27:49;;;;;;;3.60;1.50;;;;;;;4.62;100.00;100861.02;437052;1256;139832;-57
2024/02/17 21:38:16;;;;;;;5.60;2.10;;;;;;;4.65;100.00;100875.88;441216;1253;140253;-68
2024/02/17 21:48:42;;;;;;;1.80;1.60;;;;;;;4.64;100.00;100890.30;436858;1255;139704;-69
2024/02/17 21:59:09;;;;;;;2.40;1.80;;;;;;;4.67;100.00;100894.40;437667;1256;140105;-68
2024/02/17 22:09:36;;;;;;;3.00;2.20;;;;;;;4.67;100.00;100909.83;438145;1259;140285;-69
2024/02/17 22:20:08;;;;;;;2.60;2.10;;;;;;;4.52;100.00;100924.48;437224;1256;140538;-54
2024/02/17 22:30:35;;;;;;;3.30;2.10;;;;;;;4.39;100.00;100944.66;437300;1254;140038;-58
2024/02/17 22:41:02;;;;;;;2.20;2.00;;;;;;;4.27;100.00;100958.89;437521;1253;140584;-57
2024/02/17 22:51:28;;;;;;;3.10;2.60;;;;;;;4.12;100.00;100963.11;436093;1253;140525;-57
2024/02/17 23:01:56;;;;;;;2.80;2.60;;;;;;;4.03;100.00;100975.20;437395;1253;140103;-56
2024/02/17 23:12:23;;;;;;;2.70;2.20;;;;;;;3.95;100.00;100977.39;439598;1259;140367;-68
2024/02/17 23:22:49;;;;;;;3.30;2.80;;;;;;;3.89;100.00;100985.43;435948;1258;140565;-68
2024/02/17 23:33:16;;;;;;;2.40;2.20;;;;;;;3.82;100.00;101000.95;436791;1256;140305;-54
2024/02/17 23:43:43;;;;;;;1.90;1.80;;;;;;;3.67;100.00;101009.97;437724;1253;140238;-56
2024/02/17 23:54:09;;;;;;;3.40;2.90;;;;;;;3.54;100.00;101017.77;436017;1256;140090;-69
